Nashville, Tennessee
Traffic Map
Current Weather Conditions
Nashville, Tennessee
Clear
Clear

Feels Like: 0°
Wind Chill: Ceiling: Unl
Heat Index: Visibility: 10mi
Dew Point: -7° Wind: 0mph
Humidity: 61% Direction: ° ()
Pressure: 30.35in Gusts: 0mph
Raw Report DataKBNA 290553Z 00000KT 10SM CLR 00/M07 A3035 RMK AO2 SLP281 T00001067 10056 21017 400891028 51008
Traffic Incident Summary
Active as of:
Severity:
Category:
InformationThere was an issue retrieving the traffic information for this location. Please try a different location or try again shortly.
Advertisements
Track Severe Weather on mobile